createdAt,value
2022-08-22T00:00:43.789Z,31.75
2022-08-22T00:03:03.717Z,31.25
2022-08-22T00:03:06.868Z,30.00
2022-08-22T00:03:11.474Z,30.00
2022-08-22T00:03:11.845Z,30.00
2022-08-22T00:03:39.924Z,32.00
2022-08-22T00:06:14.468Z,30.75
2022-08-22T00:09:05.814Z,31.00
2022-08-22T00:11:56.183Z,31.75
2022-08-22T00:14:46.603Z,31.00
2022-08-22T00:17:27.169Z,31.00
2022-08-22T00:20:08.177Z,30.25
2022-08-22T00:22:56.672Z,31.50
2022-08-22T00:25:48.162Z,31.00
2022-08-22T00:28:49.958Z,32.00
2022-08-22T00:31:31.735Z,31.00
2022-08-22T00:34:08.197Z,31.00
2022-08-22T00:36:47.687Z,32.00
2022-08-22T00:39:36.949Z,31.00
2022-08-22T00:42:29.538Z,31.50
2022-08-22T00:44:59.115Z,31.00
2022-08-22T00:47:54.197Z,31.50
2022-08-22T00:50:26.792Z,31.00
2022-08-22T00:53:08.985Z,31.00
2022-08-22T00:55:53.632Z,31.50
2022-08-22T00:58:50.750Z,32.00
2022-08-22T01:01:26.481Z,31.50
2022-08-22T01:04:13.894Z,31.00
2022-08-22T01:07:09.941Z,30.00
2022-08-22T01:09:45.850Z,31.00
2022-08-22T01:12:28.121Z,33.00
2022-08-22T01:14:59.715Z,32.00
2022-08-22T01:18:01.843Z,31.00
2022-08-22T01:20:52.632Z,32.75
2022-08-22T01:23:43.771Z,33.00
2022-08-22T01:26:32.401Z,32.00
2022-08-22T01:29:28.319Z,34.00
2022-08-22T01:32:14.033Z,32.00
2022-08-22T01:34:47.160Z,31.00
2022-08-22T01:37:43.471Z,31.50
2022-08-22T01:40:54.201Z,31.00
2022-08-22T01:43:58.646Z,30.00
2022-08-22T01:46:34.316Z,30.00
2022-08-22T01:49:25.460Z,31.00
2022-08-22T01:52:11.078Z,31.00
2022-08-22T01:55:01.759Z,31.00
2022-08-22T01:57:28.888Z,31.00
2022-08-22T02:00:00.519Z,31.00
2022-08-22T02:02:45.963Z,32.00
2022-08-22T02:05:24.323Z,31.00
2022-08-22T02:08:32.716Z,31.00
2022-08-22T02:11:09.793Z,31.50
2022-08-22T02:13:49.583Z,31.50
2022-08-22T02:16:41.834Z,32.00
2022-08-22T02:19:26.629Z,31.50
2022-08-22T02:22:29.636Z,31.50
2022-08-22T02:25:13.613Z,30.00
2022-08-22T02:27:52.334Z,31.00
2022-08-22T02:30:41.429Z,30.00
2022-08-22T02:33:15.650Z,32.75
2022-08-22T02:35:55.007Z,31.50
2022-08-22T02:38:48.124Z,31.00
2022-08-22T02:41:36.530Z,32.25
2022-08-22T02:44:31.492Z,32.50
2022-08-22T02:47:26.235Z,31.75
2022-08-22T02:50:04.731Z,33.00
2022-08-22T02:52:51.314Z,31.00
2022-08-22T02:55:42.391Z,32.00
2022-08-22T02:58:09.205Z,31.00
2022-08-22T03:01:02.495Z,33.00
2022-08-22T03:03:36.180Z,31.00
2022-08-22T03:06:07.651Z,33.50
2022-08-22T03:09:20.492Z,34.00
2022-08-22T03:12:04.509Z,32.00
2022-08-22T03:14:41.322Z,33.00
2022-08-22T03:17:17.034Z,33.00
2022-08-22T03:19:59.514Z,33.00
2022-08-22T03:22:44.255Z,33.00
2022-08-22T03:25:34.999Z,36.00
2022-08-22T03:28:18.188Z,37.00
2022-08-22T03:31:11.300Z,36.00
2022-08-22T03:34:01.100Z,37.00
2022-08-22T03:36:29.724Z,36.00
2022-08-22T03:39:07.279Z,37.00
2022-08-22T03:41:47.550Z,36.00
2022-08-22T03:44:36.589Z,38.00
2022-08-22T03:47:09.418Z,39.00
2022-08-22T03:49:42.432Z,38.00
2022-08-22T03:52:18.184Z,37.00
2022-08-22T03:55:08.133Z,37.00
2022-08-22T03:58:27.330Z,37.00
2022-08-22T04:01:34.093Z,37.00
2022-08-22T04:04:22.697Z,36.00
2022-08-22T04:06:56.363Z,37.50
2022-08-22T04:09:54.782Z,38.00
2022-08-22T04:12:49.771Z,36.00
2022-08-22T04:15:54.084Z,36.50
2022-08-22T04:18:47.953Z,37.00
2022-08-22T04:21:42.120Z,37.00
2022-08-22T04:24:30.582Z,37.00
2022-08-22T04:27:29.763Z,37.00
2022-08-22T04:30:06.385Z,36.50
2022-08-22T04:32:40.703Z,36.00
2022-08-22T04:35:28.447Z,37.00
2022-08-22T04:38:12.462Z,37.00
2022-08-22T04:40:47.417Z,38.00
2022-08-22T04:43:23.293Z,37.00
2022-08-22T04:46:03.156Z,37.50
2022-08-22T04:48:39.005Z,36.00
2022-08-22T04:51:33.499Z,37.00
2022-08-22T04:54:12.658Z,39.00
2022-08-22T04:56:51.739Z,38.00
2022-08-22T04:59:19.705Z,37.50
2022-08-22T05:01:52.605Z,37.00
2022-08-22T05:04:24.042Z,38.00
2022-08-22T05:07:19.264Z,37.75
2022-08-22T05:10:21.509Z,38.00
2022-08-22T05:12:55.939Z,37.00
2022-08-22T05:15:33.154Z,37.00
2022-08-22T05:18:14.057Z,37.00
2022-08-22T05:20:47.133Z,37.00
2022-08-22T05:23:25.181Z,39.00
2022-08-22T05:25:57.389Z,37.00
2022-08-22T05:28:35.429Z,36.00
2022-08-22T05:31:09.896Z,37.00
2022-08-22T05:34:04.039Z,37.00
2022-08-22T05:37:08.281Z,38.00
2022-08-22T05:39:38.477Z,38.00
2022-08-22T05:42:12.112Z,37.00
2022-08-22T05:44:39.592Z,38.00
2022-08-22T05:47:23.837Z,37.00
2022-08-22T05:50:13.163Z,37.50
2022-08-22T05:52:57.275Z,37.00
2022-08-22T05:55:51.907Z,38.00
2022-08-22T05:58:39.712Z,37.00
2022-08-22T06:01:18.705Z,38.00
2022-08-22T06:04:01.516Z,38.00
2022-08-22T06:06:32.435Z,37.00
2022-08-22T06:09:23.909Z,37.00
2022-08-22T06:11:58.577Z,36.75
2022-08-22T06:14:32.925Z,36.00
2022-08-22T06:17:11.763Z,36.00
2022-08-22T06:19:44.104Z,36.00
2022-08-22T06:22:27.208Z,37.00
2022-08-22T06:24:57.514Z,36.00
2022-08-22T06:27:31.291Z,36.00
2022-08-22T06:30:03.230Z,36.25
2022-08-22T06:32:59.865Z,37.00
2022-08-22T06:35:43.198Z,37.50
2022-08-22T06:38:10.592Z,37.50
2022-08-22T06:40:41.531Z,37.00
2022-08-22T06:43:10.812Z,38.00
2022-08-22T06:45:39.585Z,38.00
2022-08-22T06:48:09.318Z,38.00
2022-08-22T06:50:40.678Z,37.50
2022-08-22T06:53:45.950Z,36.00
2022-08-22T06:56:25.484Z,36.00
2022-08-22T06:59:02.709Z,37.00
2022-08-22T07:01:48.570Z,37.00
2022-08-22T07:04:16.218Z,38.00
2022-08-22T07:06:46.139Z,39.00
2022-08-22T07:09:35.549Z,36.50
2022-08-22T07:12:11.046Z,37.00
2022-08-22T07:14:49.327Z,37.00
2022-08-22T07:17:25.808Z,37.00
2022-08-22T07:20:02.001Z,37.00
2022-08-22T07:22:32.853Z,38.00
2022-08-22T07:25:05.806Z,37.00
2022-08-22T07:28:03.817Z,38.00
2022-08-22T07:30:54.057Z,39.00
2022-08-22T07:33:44.074Z,38.00
2022-08-22T07:36:31.990Z,39.00
2022-08-22T07:39:27.025Z,39.00
2022-08-22T07:42:30.373Z,38.00
2022-08-22T07:45:26.726Z,38.00
2022-08-22T07:48:11.537Z,37.00
2022-08-22T07:50:53.926Z,36.00
2022-08-22T07:53:45.455Z,36.00
2022-08-22T07:56:17.793Z,37.00
2022-08-22T07:58:47.873Z,40.00
2022-08-22T08:01:21.806Z,39.00
2022-08-22T08:03:55.737Z,39.00
2022-08-22T08:06:24.919Z,38.00
2022-08-22T08:08:53.053Z,37.50
2022-08-22T08:11:25.005Z,37.00
2022-08-22T08:14:00.925Z,37.00
2022-08-22T08:16:33.443Z,37.00
2022-08-22T08:19:02.685Z,36.00
2022-08-22T08:21:51.058Z,35.75
2022-08-22T08:24:24.144Z,36.00
2022-08-22T08:26:59.185Z,36.00
2022-08-22T08:29:26.283Z,36.00
2022-08-22T08:31:53.287Z,37.00
2022-08-22T08:34:26.034Z,37.00
2022-08-22T08:37:16.691Z,37.50
2022-08-22T08:39:48.604Z,37.00
2022-08-22T08:42:26.930Z,38.00
2022-08-22T08:45:18.738Z,37.00
2022-08-22T08:48:01.303Z,37.00
2022-08-22T08:50:53.353Z,37.00
2022-08-22T08:53:48.532Z,37.50
2022-08-22T08:56:25.506Z,38.00
2022-08-22T08:59:10.120Z,38.00
2022-08-22T09:01:49.245Z,38.75
2022-08-22T09:04:50.293Z,39.50
2022-08-22T09:07:58.945Z,39.00
2022-08-22T09:10:36.590Z,39.00
2022-08-22T09:13:11.489Z,38.00
2022-08-22T09:16:27.364Z,37.00
2022-08-22T09:19:28.329Z,36.50
2022-08-22T09:22:50.220Z,37.75
2022-08-22T09:25:33.704Z,37.00
2022-08-22T09:28:28.354Z,37.00
2022-08-22T09:31:33.067Z,38.00
2022-08-22T09:37:45.766Z,37.00
2022-08-22T09:43:05.796Z,38.00
2022-08-22T09:46:20.153Z,38.00
2022-08-22T09:49:30.264Z,37.00
2022-08-22T09:52:15.239Z,38.00
2022-08-22T09:55:08.528Z,37.00
2022-08-22T09:57:56.513Z,37.00
2022-08-22T10:00:33.220Z,36.00
2022-08-22T10:03:12.364Z,37.00
2022-08-22T10:05:59.359Z,36.00
2022-08-22T10:08:46.002Z,36.00
2022-08-22T10:11:32.284Z,37.00
2022-08-22T10:14:04.950Z,37.50
2022-08-22T10:16:43.301Z,37.50
2022-08-22T10:19:47.782Z,38.00
2022-08-22T10:22:29.792Z,38.00
2022-08-22T10:25:06.303Z,38.00
2022-08-22T10:27:45.661Z,38.00
2022-08-22T10:30:38.785Z,37.00
2022-08-22T10:33:32.294Z,37.00
2022-08-22T10:36:12.013Z,37.00
2022-08-22T10:38:51.049Z,37.00
2022-08-22T10:41:26.918Z,37.00
2022-08-22T10:44:17.231Z,37.00
2022-08-22T10:46:50.519Z,36.00
2022-08-22T10:49:32.097Z,38.50
2022-08-22T10:52:15.703Z,38.00
2022-08-22T10:54:48.129Z,38.00
2022-08-22T10:57:35.300Z,38.00
2022-08-22T11:00:34.101Z,38.00
2022-08-22T11:03:18.713Z,38.00
2022-08-22T11:05:51.322Z,38.00
2022-08-22T11:08:35.441Z,38.00
2022-08-22T11:11:11.420Z,38.00
2022-08-22T11:13:54.599Z,40.00
2022-08-22T11:16:59.161Z,38.00
2022-08-22T11:20:04.554Z,38.00
2022-08-22T11:22:55.878Z,37.00
2022-08-22T11:25:53.674Z,36.00
2022-08-22T11:28:35.511Z,36.50
2022-08-22T11:31:40.059Z,38.00
2022-08-22T11:34:21.302Z,37.00
2022-08-22T11:37:31.679Z,37.00
2022-08-22T11:40:13.484Z,38.00
2022-08-22T11:43:03.134Z,38.00
2022-08-22T11:45:40.501Z,39.00
2022-08-22T11:48:22.261Z,39.00
2022-08-22T11:51:00.402Z,39.00
2022-08-22T11:53:45.089Z,38.50
2022-08-22T11:56:12.794Z,38.25
2022-08-22T11:58:42.488Z,39.00
2022-08-22T12:01:18.642Z,39.00
2022-08-22T12:04:23.943Z,38.25
2022-08-22T12:07:04.856Z,38.00
2022-08-22T12:09:38.078Z,38.00
2022-08-22T12:12:05.016Z,39.00
2022-08-22T12:14:54.713Z,38.00
2022-08-22T12:17:55.714Z,38.00
2022-08-22T12:20:45.544Z,39.50
2022-08-22T12:23:48.799Z,39.00
2022-08-22T12:26:28.654Z,37.50
2022-08-22T12:28:58.470Z,37.50
2022-08-22T12:31:56.603Z,39.25
2022-08-22T12:34:57.248Z,38.00
2022-08-22T12:37:52.805Z,38.00
2022-08-22T12:40:48.755Z,39.00
2022-08-22T12:43:42.540Z,39.00
2022-08-22T12:46:14.937Z,37.50
2022-08-22T12:49:07.999Z,38.00
2022-08-22T12:51:38.099Z,38.00
2022-08-22T12:54:44.002Z,38.00
2022-08-22T12:57:33.306Z,38.00
2022-08-22T13:00:26.886Z,39.00
2022-08-22T13:03:02.148Z,38.00
2022-08-22T13:05:40.638Z,37.75
2022-08-22T13:08:15.869Z,37.00
2022-08-22T13:11:00.874Z,36.00
2022-08-22T13:13:36.942Z,36.00
2022-08-22T13:16:13.133Z,37.00
2022-08-22T13:18:53.471Z,37.00
2022-08-22T13:21:31.667Z,38.00
2022-08-22T13:24:16.878Z,39.00
2022-08-22T13:27:00.316Z,38.00
2022-08-22T13:29:42.701Z,39.00
2022-08-22T13:32:31.557Z,37.50
2022-08-22T13:35:00.735Z,38.00
2022-08-22T13:37:50.195Z,38.50
2022-08-22T13:40:32.580Z,38.00
2022-08-22T13:43:10.441Z,37.00
2022-08-22T13:45:40.703Z,38.00
2022-08-22T13:48:15.428Z,39.00
2022-08-22T13:51:04.040Z,39.00
2022-08-22T13:53:38.377Z,39.00
2022-08-22T13:56:29.793Z,38.25
2022-08-22T13:59:00.340Z,37.00
2022-08-22T14:01:35.945Z,39.00
2022-08-22T14:04:36.221Z,38.00
2022-08-22T14:07:03.690Z,38.00
2022-08-22T14:09:54.233Z,37.00
2022-08-22T14:12:28.698Z,39.00
2022-08-22T14:15:08.216Z,39.00
2022-08-22T14:17:43.478Z,38.50
2022-08-22T14:20:32.642Z,39.50
2022-08-22T14:23:09.137Z,39.00
2022-08-22T14:25:42.606Z,38.00
2022-08-22T14:28:28.592Z,39.00
2022-08-22T14:31:13.875Z,38.00
2022-08-22T14:33:59.729Z,38.00
2022-08-22T14:36:46.921Z,39.00
2022-08-22T14:39:29.412Z,39.00
2022-08-22T14:42:05.571Z,39.00
2022-08-22T14:44:40.691Z,39.00
2022-08-22T14:47:54.157Z,39.00
2022-08-22T14:50:29.436Z,38.50
2022-08-22T14:53:26.366Z,40.00
2022-08-22T14:56:24.993Z,39.00
2022-08-22T14:59:02.305Z,39.00
2022-08-22T15:01:57.375Z,38.00
2022-08-22T15:04:47.136Z,38.00
2022-08-22T15:07:26.914Z,39.00
2022-08-22T15:10:11.842Z,38.00
2022-08-22T15:13:05.875Z,37.50
2022-08-22T15:15:53.506Z,37.00
2022-08-22T15:18:28.109Z,39.00
2022-08-22T15:21:11.354Z,38.00
2022-08-22T15:23:46.809Z,38.00
2022-08-22T15:26:25.878Z,38.00
2022-08-22T15:29:16.718Z,37.75
2022-08-22T15:31:46.774Z,38.25
2022-08-22T15:34:46.294Z,38.00
2022-08-22T15:37:16.197Z,38.00
2022-08-22T15:40:07.472Z,39.00
2022-08-22T15:42:44.080Z,39.00
2022-08-22T15:45:38.587Z,40.00
2022-08-22T15:48:24.140Z,39.00
2022-08-22T15:51:09.452Z,39.75
2022-08-22T15:53:45.376Z,38.00
2022-08-22T15:56:12.264Z,39.75
2022-08-22T15:58:48.744Z,39.00
2022-08-22T16:01:20.834Z,39.00
2022-08-22T16:04:02.871Z,40.00
2022-08-22T16:06:47.603Z,39.00
2022-08-22T16:09:44.718Z,39.00
2022-08-22T16:12:28.703Z,40.00
2022-08-22T16:14:55.894Z,39.00
2022-08-22T16:17:28.721Z,38.00
2022-08-22T16:20:15.864Z,38.00
2022-08-22T16:23:00.449Z,38.00
2022-08-22T16:25:45.476Z,37.50
2022-08-22T16:28:54.408Z,38.25
2022-08-22T16:31:46.017Z,38.00
2022-08-22T16:34:43.620Z,38.75
2022-08-22T16:37:13.317Z,39.00
2022-08-22T16:39:58.606Z,39.00
2022-08-22T16:42:38.108Z,38.00
2022-08-22T16:45:29.677Z,37.50
2022-08-22T16:47:58.580Z,38.00
2022-08-22T16:50:32.229Z,38.25
2022-08-22T16:53:30.326Z,39.00
2022-08-22T16:56:20.852Z,39.00
2022-08-22T16:59:22.812Z,38.50
2022-08-22T17:07:32.669Z,38.00
2022-08-22T17:19:23.167Z,36.00
2022-08-22T17:22:43.242Z,39.00
2022-08-22T17:25:32.119Z,39.00
2022-08-22T17:32:19.161Z,37.00
2022-08-22T17:35:13.543Z,38.25
2022-08-22T17:41:19.166Z,37.00
2022-08-22T17:44:10.634Z,37.00
2022-08-22T17:47:08.059Z,37.00
2022-08-22T17:50:42.459Z,37.50
2022-08-22T17:53:05.645Z,37.00
2022-08-22T17:59:20.977Z,37.00
2022-08-22T18:02:18.863Z,38.00
2022-08-22T18:11:52.555Z,37.75
2022-08-22T18:15:06.007Z,37.00
2022-08-22T18:17:50.225Z,37.00
2022-08-22T18:20:57.708Z,37.00
2022-08-22T18:23:40.603Z,38.00
2022-08-22T18:26:18.543Z,36.50
2022-08-22T18:29:16.595Z,36.50
2022-08-22T18:32:12.990Z,36.50
2022-08-22T18:34:51.804Z,38.00
2022-08-22T18:37:30.598Z,36.50
2022-08-22T18:40:11.793Z,36.50
2022-08-22T18:42:59.449Z,36.50
2022-08-22T18:45:48.210Z,36.00
2022-08-22T18:48:27.633Z,36.25
2022-08-22T18:51:19.327Z,38.00
2022-08-22T18:53:59.210Z,38.00
2022-08-22T18:56:31.737Z,36.50
2022-08-22T18:59:07.656Z,36.50
2022-08-22T19:02:01.040Z,38.25
2022-08-22T19:04:49.398Z,37.00
2022-08-22T19:07:27.135Z,36.00
2022-08-22T19:10:25.414Z,37.00
2022-08-22T19:13:17.536Z,37.00
2022-08-22T19:16:21.695Z,39.00
2022-08-22T19:18:58.303Z,38.00
2022-08-22T19:21:29.580Z,37.00
2022-08-22T19:23:56.681Z,39.00
2022-08-22T19:26:35.314Z,38.00
2022-08-22T19:29:25.441Z,38.00
2022-08-22T19:31:58.929Z,37.25
2022-08-22T19:34:26.014Z,38.00
2022-08-22T19:37:30.740Z,37.25
2022-08-22T19:40:01.964Z,36.75
2022-08-22T19:42:32.317Z,37.00
2022-08-22T19:45:04.718Z,36.00
2022-08-22T19:47:39.780Z,36.75
2022-08-22T19:50:15.680Z,36.00
2022-08-22T19:52:45.270Z,37.00
2022-08-22T19:55:27.241Z,37.00
2022-08-22T19:58:15.310Z,36.00
2022-08-22T20:00:58.005Z,38.00
2022-08-22T20:03:59.183Z,37.00
2022-08-22T20:06:55.047Z,37.00
2022-08-22T20:09:43.313Z,38.00
2022-08-22T20:12:19.166Z,37.00
2022-08-22T20:14:50.553Z,36.00
2022-08-22T20:17:24.065Z,37.00
2022-08-22T20:22:55.426Z,37.50
2022-08-22T20:25:43.006Z,37.00
2022-08-22T20:28:24.898Z,37.00
2022-08-22T20:30:58.796Z,36.75
2022-08-22T20:33:31.368Z,38.25
2022-08-22T20:36:06.569Z,38.00
2022-08-22T20:38:55.804Z,37.00
2022-08-22T20:41:52.283Z,37.00
2022-08-22T20:44:25.127Z,37.00
2022-08-22T20:47:05.326Z,37.25
2022-08-22T20:49:41.873Z,38.00
2022-08-22T20:52:30.911Z,36.00
2022-08-22T20:55:21.395Z,36.00
2022-08-22T20:57:53.051Z,36.00
2022-08-22T21:00:28.060Z,36.50
2022-08-22T21:02:57.804Z,36.50
2022-08-22T21:05:33.253Z,36.25
2022-08-22T21:08:20.875Z,36.00
2022-08-22T21:10:57.945Z,36.50
2022-08-22T21:13:36.291Z,36.25
2022-08-22T21:16:16.862Z,36.00
2022-08-22T21:18:49.618Z,36.00
2022-08-22T21:21:22.324Z,36.25
2022-08-22T21:24:10.286Z,38.75
2022-08-22T21:26:46.009Z,37.00
2022-08-22T21:29:19.892Z,37.00
2022-08-22T21:31:54.172Z,36.50
2022-08-22T21:34:35.241Z,36.00
2022-08-22T21:37:35.158Z,35.75
2022-08-22T21:40:16.741Z,35.00
2022-08-22T21:42:58.347Z,36.00
2022-08-22T21:45:51.585Z,36.00
2022-08-22T21:48:30.388Z,36.00
2022-08-22T21:51:40.307Z,36.00
2022-08-22T21:54:25.550Z,36.00
2022-08-22T21:56:58.694Z,36.00
2022-08-22T21:59:51.625Z,36.00
2022-08-22T22:02:36.798Z,37.00
2022-08-22T22:05:11.326Z,36.00
2022-08-22T22:07:41.156Z,38.00
2022-08-22T22:10:12.065Z,36.00
2022-08-22T22:12:43.803Z,36.00
2022-08-22T22:15:16.264Z,36.50
2022-08-22T22:17:43.191Z,36.00
2022-08-22T22:20:11.874Z,36.00
2022-08-22T22:22:43.177Z,35.75
2022-08-22T22:25:39.651Z,35.50
2022-08-22T22:28:07.142Z,36.00
2022-08-22T22:30:34.231Z,36.00
2022-08-22T22:33:01.045Z,36.25
2022-08-22T22:35:28.048Z,37.00
2022-08-22T22:38:03.746Z,36.50
2022-08-22T22:40:30.883Z,35.00
2022-08-22T22:42:57.943Z,36.25
2022-08-22T22:45:25.221Z,35.00
2022-08-22T22:47:52.034Z,35.75
2022-08-22T22:50:18.923Z,35.00
2022-08-22T22:52:45.795Z,35.00
2022-08-22T22:55:12.692Z,35.25
2022-08-22T22:57:58.633Z,35.75
2022-08-22T23:00:29.176Z,34.50
2022-08-22T23:03:02.343Z,34.50
2022-08-22T23:05:30.682Z,36.50
2022-08-22T23:08:00.507Z,36.00
2022-08-22T23:10:29.206Z,35.00
2022-08-22T23:12:56.188Z,35.00
2022-08-22T23:15:23.310Z,35.00
2022-08-22T23:17:51.301Z,35.00
2022-08-22T23:20:18.231Z,35.00
2022-08-22T23:22:46.113Z,35.00
2022-08-22T23:25:13.507Z,36.00
2022-08-22T23:27:42.607Z,36.00
2022-08-22T23:30:10.835Z,35.00
2022-08-22T23:32:47.959Z,35.00
2022-08-22T23:35:15.031Z,34.00
2022-08-22T23:37:44.185Z,35.00
2022-08-22T23:40:11.622Z,34.75
2022-08-22T23:42:40.549Z,34.50
2022-08-22T23:45:07.639Z,35.00
2022-08-22T23:47:37.612Z,37.00
2022-08-22T23:50:06.215Z,36.00
2022-08-22T23:52:35.779Z,34.00
2022-08-22T23:55:03.509Z,35.00
2022-08-22T23:57:30.364Z,35.00
2022-08-22T23:59:58.476Z,35.00
